sensor_id;sensor_type;location;lat;lon;timestamp;noise_LAeq;noise_LA_min;noise_LA_max;noise_LA01;noise_LA95
75467;Laerm;64050;50.634;3.062;2023-03-01T00:01:11;48.97;45.48;57.58;;
75467;Laerm;64050;50.634;3.062;2023-03-01T00:03:37;49.33;46.11;52.47;;
75467;Laerm;64050;50.634;3.062;2023-03-01T00:06:03;45.50;36.46;51.96;;
75467;Laerm;64050;50.634;3.062;2023-03-01T00:08:28;39.87;37.24;45.47;;
75467;Laerm;64050;50.634;3.062;2023-03-01T00:13:26;39.90;36.89;46.55;;
75467;Laerm;64050;50.634;3.062;2023-03-01T00:15:51;41.81;37.58;48.55;;
75467;Laerm;64050;50.634;3.062;2023-03-01T00:18:16;48.66;45.63;51.27;;
75467;Laerm;64050;50.634;3.062;2023-03-01T00:20:42;49.20;45.79;51.67;;
75467;Laerm;64050;50.634;3.062;2023-03-01T00:23:13;49.28;45.54;52.17;;
75467;Laerm;64050;50.634;3.062;2023-03-01T00:25:42;43.68;37.04;51.83;;
75467;Laerm;64050;50.634;3.062;2023-03-01T00:28:07;42.97;36.30;57.45;;
75467;Laerm;64050;50.634;3.062;2023-03-01T00:30:33;41.49;37.30;47.87;;
75467;Laerm;64050;50.634;3.062;2023-03-01T00:32:58;45.16;37.06;67.29;;
75467;Laerm;64050;50.634;3.062;2023-03-01T00:35:23;41.36;36.83;50.60;;
75467;Laerm;64050;50.634;3.062;2023-03-01T00:37:48;48.75;45.58;54.69;;
75467;Laerm;64050;50.634;3.062;2023-03-01T00:40:25;49.16;45.44;52.43;;
75467;Laerm;64050;50.634;3.062;2023-03-01T00:42:51;48.68;39.84;52.23;;
75467;Laerm;64050;50.634;3.062;2023-03-01T00:45:16;42.16;36.18;47.38;;
75467;Laerm;64050;50.634;3.062;2023-03-01T00:47:42;39.72;36.49;44.78;;
75467;Laerm;64050;50.634;3.062;2023-03-01T00:50:07;40.64;36.82;45.73;;
75467;Laerm;64050;50.634;3.062;2023-03-01T00:52:33;39.69;36.18;45.15;;
75467;Laerm;64050;50.634;3.062;2023-03-01T00:54:58;43.92;36.86;51.14;;
75467;Laerm;64050;50.634;3.062;2023-03-01T00:57:23;48.79;45.71;51.84;;
75467;Laerm;64050;50.634;3.062;2023-03-01T00:59:48;49.18;45.63;52.27;;
75467;Laerm;64050;50.634;3.062;2023-03-01T01:02:14;48.13;39.37;51.87;;
75467;Laerm;64050;50.634;3.062;2023-03-01T01:04:39;42.51;37.10;47.21;;
75467;Laerm;64050;50.634;3.062;2023-03-01T01:07:04;39.35;36.26;42.73;;
75467;Laerm;64050;50.634;3.062;2023-03-01T01:09:30;40.47;36.39;46.02;;
75467;Laerm;64050;50.634;3.062;2023-03-01T01:11:55;41.06;36.56;60.18;;
75467;Laerm;64050;50.634;3.062;2023-03-01T01:14:21;43.28;37.21;51.31;;
75467;Laerm;64050;50.634;3.062;2023-03-01T01:16:46;50.14;45.40;63.64;;
75467;Laerm;64050;50.634;3.062;2023-03-01T01:19:11;49.35;46.06;55.35;;
75467;Laerm;64050;50.634;3.062;2023-03-01T01:21:37;47.92;38.80;53.65;;
75467;Laerm;64050;50.634;3.062;2023-03-01T01:24:03;42.49;36.83;48.23;;
75467;Laerm;64050;50.634;3.062;2023-03-01T01:26:29;39.53;36.25;44.97;;
75467;Laerm;64050;50.634;3.062;2023-03-01T01:28:55;39.97;36.26;43.08;;
75467;Laerm;64050;50.634;3.062;2023-03-01T01:31:21;40.01;36.61;44.59;;
75467;Laerm;64050;50.634;3.062;2023-03-01T01:33:48;43.53;36.38;50.82;;
75467;Laerm;64050;50.634;3.062;2023-03-01T01:36:14;48.76;45.45;51.61;;
75467;Laerm;64050;50.634;3.062;2023-03-01T01:38:39;49.06;45.91;52.13;;
75467;Laerm;64050;50.634;3.062;2023-03-01T01:41:07;47.85;39.39;51.68;;
75467;Laerm;64050;50.634;3.062;2023-03-01T01:43:37;42.39;36.84;46.41;;
75467;Laerm;64050;50.634;3.062;2023-03-01T01:48:48;41.38;37.19;46.89;;
75467;Laerm;64050;50.634;3.062;2023-03-01T01:51:17;39.34;36.82;44.47;;
75467;Laerm;64050;50.634;3.062;2023-03-01T01:53:43;41.03;36.40;50.36;;
75467;Laerm;64050;50.634;3.062;2023-03-01T01:56:10;48.57;44.98;51.36;;
75467;Laerm;64050;50.634;3.062;2023-03-01T01:58:35;49.05;45.72;51.93;;
75467;Laerm;64050;50.634;3.062;2023-03-01T02:01:01;47.55;38.42;52.10;;
75467;Laerm;64050;50.634;3.062;2023-03-01T02:03:27;41.36;36.23;48.15;;
75467;Laerm;64050;50.634;3.062;2023-03-01T02:08:45;40.43;36.02;44.19;;
75467;Laerm;64050;50.634;3.062;2023-03-01T02:11:12;39.63;36.73;48.90;;
75467;Laerm;64050;50.634;3.062;2023-03-01T02:13:39;41.55;37.37;51.60;;
75467;Laerm;64050;50.634;3.062;2023-03-01T02:16:05;48.68;42.60;53.39;;
75467;Laerm;64050;50.634;3.062;2023-03-01T02:18:32;49.10;45.45;51.89;;
75467;Laerm;64050;50.634;3.062;2023-03-01T02:21:01;47.40;39.22;52.00;;
75467;Laerm;64050;50.634;3.062;2023-03-01T02:23:30;39.96;37.07;45.99;;
75467;Laerm;64050;50.634;3.062;2023-03-01T02:26:01;39.80;36.70;44.66;;
75467;Laerm;64050;50.634;3.062;2023-03-01T02:28:32;40.76;37.13;49.49;;
75467;Laerm;64050;50.634;3.062;2023-03-01T02:30:58;39.96;36.87;48.75;;
75467;Laerm;64050;50.634;3.062;2023-03-01T02:33:42;40.68;36.72;45.07;;
75467;Laerm;64050;50.634;3.062;2023-03-01T02:36:14;42.36;36.83;48.06;;
75467;Laerm;64050;50.634;3.062;2023-03-01T02:38:40;48.86;39.93;51.81;;
75467;Laerm;64050;50.634;3.062;2023-03-01T02:41:06;49.04;45.45;54.65;;
75467;Laerm;64050;50.634;3.062;2023-03-01T02:43:32;48.88;45.83;51.74;;
75467;Laerm;64050;50.634;3.062;2023-03-01T02:45:59;48.64;45.41;51.44;;
75467;Laerm;64050;50.634;3.062;2023-03-01T02:48:24;45.63;37.12;51.08;;
75467;Laerm;64050;50.634;3.062;2023-03-01T02:56:02;48.96;45.18;51.68;;
75467;Laerm;64050;50.634;3.062;2023-03-01T02:58:27;49.08;45.25;52.07;;
75467;Laerm;64050;50.634;3.062;2023-03-01T03:00:52;49.18;46.15;52.19;;
75467;Laerm;64050;50.634;3.062;2023-03-01T03:03:18;47.52;36.49;51.53;;
75467;Laerm;64050;50.634;3.062;2023-03-01T03:05:44;40.66;36.30;49.80;;
75467;Laerm;64050;50.634;3.062;2023-03-01T03:08:09;39.99;36.56;46.90;;
75467;Laerm;64050;50.634;3.062;2023-03-01T03:10:37;41.14;37.08;46.93;;
75467;Laerm;64050;50.634;3.062;2023-03-01T03:13:04;40.59;36.99;46.77;;
75467;Laerm;64050;50.634;3.062;2023-03-01T03:15:29;48.77;39.69;52.02;;
75467;Laerm;64050;50.634;3.062;2023-03-01T03:17:55;49.13;45.71;52.22;;
75467;Laerm;64050;50.634;3.062;2023-03-01T03:20:22;49.01;45.50;51.49;;
75467;Laerm;64050;50.634;3.062;2023-03-01T03:22:49;43.08;36.78;51.30;;
75467;Laerm;64050;50.634;3.062;2023-03-01T03:25:15;39.22;36.28;43.90;;
75467;Laerm;64050;50.634;3.062;2023-03-01T03:27:41;40.95;36.43;45.66;;
75467;Laerm;64050;50.634;3.062;2023-03-01T03:30:10;41.92;36.88;51.41;;
75467;Laerm;64050;50.634;3.062;2023-03-01T03:32:37;42.33;37.46;51.55;;
75467;Laerm;64050;50.634;3.062;2023-03-01T03:35:05;47.32;39.17;51.63;;
75467;Laerm;64050;50.634;3.062;2023-03-01T03:37:37;49.11;45.93;54.11;;
75467;Laerm;64050;50.634;3.062;2023-03-01T03:40:21;48.18;37.86;52.22;;
75467;Laerm;64050;50.634;3.062;2023-03-01T03:42:46;40.86;37.76;46.63;;
75467;Laerm;64050;50.634;3.062;2023-03-01T03:45:13;41.90;38.11;47.03;;
75467;Laerm;64050;50.634;3.062;2023-03-01T03:47:38;40.54;36.93;51.77;;
75467;Laerm;64050;50.634;3.062;2023-03-01T03:50:03;41.40;37.27;47.32;;
75467;Laerm;64050;50.634;3.062;2023-03-01T03:52:28;41.92;37.34;46.57;;
75467;Laerm;64050;50.634;3.062;2023-03-01T03:54:54;46.92;39.23;51.69;;
75467;Laerm;64050;50.634;3.062;2023-03-01T03:57:19;48.99;45.20;52.29;;
75467;Laerm;64050;50.634;3.062;2023-03-01T03:59:46;48.65;37.35;52.26;;
75467;Laerm;64050;50.634;3.062;2023-03-01T04:02:11;41.57;37.16;46.25;;
75467;Laerm;64050;50.634;3.062;2023-03-01T04:04:36;40.24;37.10;43.81;;
75467;Laerm;64050;50.634;3.062;2023-03-01T04:07:01;41.37;37.69;45.21;;
75467;Laerm;64050;50.634;3.062;2023-03-01T04:09:27;40.87;37.82;44.68;;
75467;Laerm;64050;50.634;3.062;2023-03-01T04:11:52;44.03;38.20;52.98;;
75467;Laerm;64050;50.634;3.062;2023-03-01T04:14:17;43.75;40.22;48.88;;
75467;Laerm;64050;50.634;3.062;2023-03-01T04:16:42;47.79;40.47;53.29;;
75467;Laerm;64050;50.634;3.062;2023-03-01T04:19:08;48.74;39.08;51.88;;
75467;Laerm;64050;50.634;3.062;2023-03-01T04:21:34;41.60;38.53;48.97;;
75467;Laerm;64050;50.634;3.062;2023-03-01T04:24:01;42.70;38.26;46.78;;
75467;Laerm;64050;50.634;3.062;2023-03-01T04:26:28;41.69;38.48;47.46;;
75467;Laerm;64050;50.634;3.062;2023-03-01T04:28:53;42.30;38.49;45.96;;
75467;Laerm;64050;50.634;3.062;2023-03-01T04:31:19;43.22;39.66;47.93;;
75467;Laerm;64050;50.634;3.062;2023-03-01T04:36:11;46.25;40.45;51.56;;
75467;Laerm;64050;50.634;3.062;2023-03-01T04:38:37;49.12;45.60;53.07;;
75467;Laerm;64050;50.634;3.062;2023-03-01T04:41:04;46.62;40.30;53.43;;
75467;Laerm;64050;50.634;3.062;2023-03-01T04:43:29;45.32;40.03;52.11;;
75467;Laerm;64050;50.634;3.062;2023-03-01T04:45:54;49.78;45.79;55.40;;
75467;Laerm;64050;50.634;3.062;2023-03-01T04:48:19;46.12;40.72;51.82;;
75467;Laerm;64050;50.634;3.062;2023-03-01T04:50:45;45.06;41.69;50.13;;
75467;Laerm;64050;50.634;3.062;2023-03-01T04:53:10;45.21;41.96;48.75;;
75467;Laerm;64050;50.634;3.062;2023-03-01T04:55:35;46.50;42.30;51.98;;
75467;Laerm;64050;50.634;3.062;2023-03-01T04:58:00;49.97;46.91;52.64;;
75467;Laerm;64050;50.634;3.062;2023-03-01T05:00:26;45.81;41.82;51.97;;
75467;Laerm;64050;50.634;3.062;2023-03-01T05:02:52;45.64;42.15;51.64;;
75467;Laerm;64050;50.634;3.062;2023-03-01T05:05:22;49.29;41.40;55.05;;
75467;Laerm;64050;50.634;3.062;2023-03-01T05:07:50;49.16;42.98;55.50;;
75467;Laerm;64050;50.634;3.062;2023-03-01T05:10:15;49.36;42.30;54.82;;
75467;Laerm;64050;50.634;3.062;2023-03-01T05:12:40;46.46;42.31;54.61;;
75467;Laerm;64050;50.634;3.062;2023-03-01T05:15:06;48.09;42.56;59.89;;
75467;Laerm;64050;50.634;3.062;2023-03-01T05:17:32;51.20;47.51;60.91;;
75467;Laerm;64050;50.634;3.062;2023-03-01T05:19:57;47.80;41.69;67.27;;
75467;Laerm;64050;50.634;3.062;2023-03-01T05:22:24;44.88;41.91;49.81;;
75467;Laerm;64050;50.634;3.062;2023-03-01T05:24:49;47.70;42.84;55.08;;
75467;Laerm;64050;50.634;3.062;2023-03-01T05:27:15;48.97;42.64;53.30;;
75467;Laerm;64050;50.634;3.062;2023-03-01T05:29:40;45.96;42.67;49.28;;
75467;Laerm;64050;50.634;3.062;2023-03-01T05:32:05;46.18;42.62;49.96;;
75467;Laerm;64050;50.634;3.062;2023-03-01T05:34:32;46.67;42.48;53.97;;
75467;Laerm;64050;50.634;3.062;2023-03-01T05:36:57;50.43;44.46;53.48;;
75467;Laerm;64050;50.634;3.062;2023-03-01T05:39:24;48.79;43.69;53.10;;
75467;Laerm;64050;50.634;3.062;2023-03-01T05:41:54;47.01;43.05;54.82;;
75467;Laerm;64050;50.634;3.062;2023-03-01T05:44:19;46.01;42.16;51.13;;
75467;Laerm;64050;50.634;3.062;2023-03-01T05:46:45;47.21;42.50;57.70;;
75467;Laerm;64050;50.634;3.062;2023-03-01T05:49:10;46.25;41.73;50.70;;
75467;Laerm;64050;50.634;3.062;2023-03-01T05:51:36;47.69;44.03;52.81;;
75467;Laerm;64050;50.634;3.062;2023-03-01T05:54:01;51.38;47.58;60.99;;
75467;Laerm;64050;50.634;3.062;2023-03-01T05:56:26;51.10;47.54;61.03;;
75467;Laerm;64050;50.634;3.062;2023-03-01T05:58:51;47.33;43.85;53.89;;
75467;Laerm;64050;50.634;3.062;2023-03-01T06:01:16;46.75;43.81;51.14;;
75467;Laerm;64050;50.634;3.062;2023-03-01T06:03:42;48.65;42.95;53.02;;
75467;Laerm;64050;50.634;3.062;2023-03-01T06:06:07;49.59;42.93;53.62;;
75467;Laerm;64050;50.634;3.062;2023-03-01T06:08:32;47.26;42.08;55.35;;
75467;Laerm;64050;50.634;3.062;2023-03-01T06:10:57;46.99;43.41;50.53;;
75467;Laerm;64050;50.634;3.062;2023-03-01T06:13:23;50.90;44.38;64.76;;
75467;Laerm;64050;50.634;3.062;2023-03-01T06:15:48;50.48;43.26;61.79;;
75467;Laerm;64050;50.634;3.062;2023-03-01T06:18:14;48.98;42.46;59.55;;
75467;Laerm;64050;50.634;3.062;2023-03-01T06:20:39;46.40;42.86;51.70;;
75467;Laerm;64050;50.634;3.062;2023-03-01T06:23:04;46.92;42.91;57.01;;
75467;Laerm;64050;50.634;3.062;2023-03-01T06:25:29;46.93;43.39;56.98;;
75467;Laerm;64050;50.634;3.062;2023-03-01T06:27:55;46.53;42.65;51.64;;
75467;Laerm;64050;50.634;3.062;2023-03-01T06:30:20;46.37;42.52;54.71;;
75467;Laerm;64050;50.634;3.062;2023-03-01T06:32:46;50.53;43.85;58.54;;
75467;Laerm;64050;50.634;3.062;2023-03-01T06:35:12;52.10;48.55;65.43;;
75467;Laerm;64050;50.634;3.062;2023-03-01T06:37:38;49.16;43.76;60.36;;
75467;Laerm;64050;50.634;3.062;2023-03-01T06:40:04;48.29;44.11;73.62;;
75467;Laerm;64050;50.634;3.062;2023-03-01T06:42:33;51.98;44.50;73.51;;
75467;Laerm;64050;50.634;3.062;2023-03-01T06:44:58;50.39;43.54;61.49;;
75467;Laerm;64050;50.634;3.062;2023-03-01T06:47:24;49.06;43.15;54.90;;
75467;Laerm;64050;50.634;3.062;2023-03-01T06:49:49;47.47;43.30;66.85;;
75467;Laerm;64050;50.634;3.062;2023-03-01T06:52:14;46.90;43.70;54.95;;
75467;Laerm;64050;50.634;3.062;2023-03-01T06:54:39;48.79;43.70;59.65;;
75467;Laerm;64050;50.634;3.062;2023-03-01T06:57:04;48.68;45.34;54.11;;
75467;Laerm;64050;50.634;3.062;2023-03-01T06:59:29;47.75;44.22;58.41;;
75467;Laerm;64050;50.634;3.062;2023-03-01T07:01:55;51.52;48.21;56.53;;
75467;Laerm;64050;50.634;3.062;2023-03-01T07:04:20;51.65;48.58;60.61;;
75467;Laerm;64050;50.634;3.062;2023-03-01T07:06:45;51.19;47.96;62.26;;
75467;Laerm;64050;50.634;3.062;2023-03-01T07:09:10;52.17;48.33;60.92;;
75467;Laerm;64050;50.634;3.062;2023-03-01T07:11:36;53.24;48.69;63.27;;
75467;Laerm;64050;50.634;3.062;2023-03-01T07:14:02;50.83;47.46;55.66;;
75467;Laerm;64050;50.634;3.062;2023-03-01T07:16:27;51.88;47.55;67.37;;
75467;Laerm;64050;50.634;3.062;2023-03-01T07:18:52;51.25;45.54;64.40;;
75467;Laerm;64050;50.634;3.062;2023-03-01T07:21:17;50.68;44.76;65.03;;
75467;Laerm;64050;50.634;3.062;2023-03-01T07:23:43;53.91;48.16;69.08;;
75467;Laerm;64050;50.634;3.062;2023-03-01T07:26:08;50.22;44.34;64.17;;
75467;Laerm;64050;50.634;3.062;2023-03-01T07:28:33;46.91;43.53;58.40;;
75467;Laerm;64050;50.634;3.062;2023-03-01T07:31:03;53.84;44.29;80.62;;
75467;Laerm;64050;50.634;3.062;2023-03-01T07:33:28;48.65;43.45;67.80;;
75467;Laerm;64050;50.634;3.062;2023-03-01T07:36:00;54.80;43.57;79.87;;
75467;Laerm;64050;50.634;3.062;2023-03-01T07:38:26;55.42;48.11;83.14;;
75467;Laerm;64050;50.634;3.062;2023-03-01T07:40:51;53.68;47.10;76.54;;
75467;Laerm;64050;50.634;3.062;2023-03-01T07:43:17;58.49;44.02;78.12;;
75467;Laerm;64050;50.634;3.062;2023-03-01T07:45:42;52.44;42.82;67.01;;
75467;Laerm;64050;50.634;3.062;2023-03-01T07:48:07;48.54;43.06;69.56;;
75467;Laerm;64050;50.634;3.062;2023-03-01T07:50:32;47.01;43.20;59.99;;
75467;Laerm;64050;50.634;3.062;2023-03-01T07:52:58;50.93;44.92;63.77;;
75467;Laerm;64050;50.634;3.062;2023-03-01T07:55:23;48.66;43.71;61.81;;
75467;Laerm;64050;50.634;3.062;2023-03-01T07:57:48;50.42;44.23;64.19;;
75467;Laerm;64050;50.634;3.062;2023-03-01T08:00:13;50.66;45.70;63.11;;
75467;Laerm;64050;50.634;3.062;2023-03-01T08:02:39;47.53;43.78;57.59;;
75467;Laerm;64050;50.634;3.062;2023-03-01T08:05:06;49.22;44.32;61.17;;
75467;Laerm;64050;50.634;3.062;2023-03-01T08:07:32;52.91;43.93;77.33;;
75467;Laerm;64050;50.634;3.062;2023-03-01T08:09:57;47.84;43.71;61.28;;
75467;Laerm;64050;50.634;3.062;2023-03-01T08:12:23;51.86;44.35;66.78;;
75467;Laerm;64050;50.634;3.062;2023-03-01T08:14:48;56.98;45.77;68.39;;
75467;Laerm;64050;50.634;3.062;2023-03-01T08:17:14;55.70;45.56;77.82;;
75467;Laerm;64050;50.634;3.062;2023-03-01T08:19:39;53.45;45.43;69.60;;
75467;Laerm;64050;50.634;3.062;2023-03-01T08:22:04;55.05;44.65;75.27;;
75467;Laerm;64050;50.634;3.062;2023-03-01T08:24:29;52.59;44.16;68.06;;
75467;Laerm;64050;50.634;3.062;2023-03-01T08:26:55;50.99;44.80;70.94;;
75467;Laerm;64050;50.634;3.062;2023-03-01T08:29:20;50.57;45.03;62.95;;
75467;Laerm;64050;50.634;3.062;2023-03-01T08:31:46;51.16;45.93;64.56;;
75467;Laerm;64050;50.634;3.062;2023-03-01T08:34:12;51.41;45.30;68.55;;
75467;Laerm;64050;50.634;3.062;2023-03-01T08:36:39;51.56;44.57;74.43;;
75467;Laerm;64050;50.634;3.062;2023-03-01T08:39:05;49.39;44.86;58.99;;
75467;Laerm;64050;50.634;3.062;2023-03-01T08:41:31;49.22;43.72;67.08;;
75467;Laerm;64050;50.634;3.062;2023-03-01T08:43:56;48.74;44.33;62.90;;
75467;Laerm;64050;50.634;3.062;2023-03-01T08:46:27;48.45;43.88;68.55;;
75467;Laerm;64050;50.634;3.062;2023-03-01T08:48:52;47.97;42.57;59.94;;
75467;Laerm;64050;50.634;3.062;2023-03-01T08:51:18;51.16;44.51;77.76;;
75467;Laerm;64050;50.634;3.062;2023-03-01T08:53:44;51.38;44.93;67.01;;
75467;Laerm;64050;50.634;3.062;2023-03-01T08:56:09;54.77;44.78;76.02;;
75467;Laerm;64050;50.634;3.062;2023-03-01T08:58:35;48.01;44.15;55.22;;
75467;Laerm;64050;50.634;3.062;2023-03-01T09:01:00;47.69;42.94;59.18;;
75467;Laerm;64050;50.634;3.062;2023-03-01T09:03:26;48.65;44.29;59.81;;
75467;Laerm;64050;50.634;3.062;2023-03-01T09:05:52;48.07;43.45;60.76;;
75467;Laerm;64050;50.634;3.062;2023-03-01T09:08:18;50.18;44.08;59.96;;
75467;Laerm;64050;50.634;3.062;2023-03-01T09:10:43;50.47;47.17;54.96;;
75467;Laerm;64050;50.634;3.062;2023-03-01T09:13:09;50.69;46.96;69.76;;
75467;Laerm;64050;50.634;3.062;2023-03-01T09:15:36;53.91;47.08;74.95;;
75467;Laerm;64050;50.634;3.062;2023-03-01T09:18:01;51.39;47.43;69.34;;
75467;Laerm;64050;50.634;3.062;2023-03-01T09:20:26;52.79;46.36;70.46;;
75467;Laerm;64050;50.634;3.062;2023-03-01T09:22:52;51.99;46.82;72.68;;
75467;Laerm;64050;50.634;3.062;2023-03-01T09:25:17;50.18;46.81;57.41;;
75467;Laerm;64050;50.634;3.062;2023-03-01T09:27:42;50.84;46.10;63.18;;
75467;Laerm;64050;50.634;3.062;2023-03-01T09:30:07;51.49;47.03;71.77;;
75467;Laerm;64050;50.634;3.062;2023-03-01T09:32:33;53.15;47.29;77.48;;
75467;Laerm;64050;50.634;3.062;2023-03-01T09:34:58;51.01;47.95;57.24;;
75467;Laerm;64050;50.634;3.062;2023-03-01T09:37:28;51.31;47.34;69.74;;
75467;Laerm;64050;50.634;3.062;2023-03-01T09:39:54;53.77;47.98;67.84;;
75467;Laerm;64050;50.634;3.062;2023-03-01T09:42:19;52.23;47.67;69.33;;
75467;Laerm;64050;50.634;3.062;2023-03-01T09:44:48;52.59;47.52;76.86;;
75467;Laerm;64050;50.634;3.062;2023-03-01T09:47:20;64.82;47.62;73.99;;
75467;Laerm;64050;50.634;3.062;2023-03-01T09:52:33;64.51;46.89;78.81;;
75467;Laerm;64050;50.634;3.062;2023-03-01T09:54:59;54.26;47.33;72.82;;
75467;Laerm;64050;50.634;3.062;2023-03-01T10:00:07;51.41;46.88;74.39;;
75467;Laerm;64050;50.634;3.062;2023-03-01T10:02:48;50.64;46.66;58.61;;
75467;Laerm;64050;50.634;3.062;2023-03-01T10:10:43;53.43;48.35;67.73;;
75467;Laerm;64050;50.634;3.062;2023-03-01T10:13:17;52.81;47.73;67.75;;
75467;Laerm;64050;50.634;3.062;2023-03-01T10:15:48;55.94;48.49;77.31;;
75467;Laerm;64050;50.634;3.062;2023-03-01T10:18:21;53.90;48.21;69.00;;
75467;Laerm;64050;50.634;3.062;2023-03-01T10:21:00;54.32;48.59;71.06;;
75467;Laerm;64050;50.634;3.062;2023-03-01T10:23:27;54.84;47.59;73.52;;
75467;Laerm;64050;50.634;3.062;2023-03-01T10:26:00;56.46;48.59;72.26;;
75467;Laerm;64050;50.634;3.062;2023-03-01T10:31:11;53.12;49.42;61.47;;
75467;Laerm;64050;50.634;3.062;2023-03-01T10:33:37;54.17;50.65;67.26;;
75467;Laerm;64050;50.634;3.062;2023-03-01T10:36:04;53.05;49.58;61.68;;
75467;Laerm;64050;50.634;3.062;2023-03-01T10:38:31;54.24;48.91;72.74;;
75467;Laerm;64050;50.634;3.062;2023-03-01T10:41:11;53.49;50.11;64.54;;
75467;Laerm;64050;50.634;3.062;2023-03-01T10:43:47;53.86;50.03;70.82;;
75467;Laerm;64050;50.634;3.062;2023-03-01T10:49:06;60.24;50.62;74.46;;
75467;Laerm;64050;50.634;3.062;2023-03-01T10:51:32;60.42;50.93;76.35;;
75467;Laerm;64050;50.634;3.062;2023-03-01T10:53:57;58.15;50.66;73.00;;
75467;Laerm;64050;50.634;3.062;2023-03-01T10:56:22;55.06;49.70;70.81;;
75467;Laerm;64050;50.634;3.062;2023-03-01T10:59:03;52.56;49.37;57.14;;
75467;Laerm;64050;50.634;3.062;2023-03-01T11:01:30;53.65;49.38;73.66;;
75467;Laerm;64050;50.634;3.062;2023-03-01T11:06:28;54.01;48.34;66.23;;
75467;Laerm;64050;50.634;3.062;2023-03-01T11:08:53;57.56;53.72;70.75;;
75467;Laerm;64050;50.634;3.062;2023-03-01T11:14:33;58.03;53.00;75.01;;
75467;Laerm;64050;50.634;3.062;2023-03-01T11:16:37;57.91;52.95;72.28;;
75467;Laerm;64050;50.634;3.062;2023-03-01T11:21:34;57.68;53.40;70.96;;
75467;Laerm;64050;50.634;3.062;2023-03-01T11:24:01;57.18;53.73;67.35;;
75467;Laerm;64050;50.634;3.062;2023-03-01T11:26:28;56.87;53.38;61.09;;
75467;Laerm;64050;50.634;3.062;2023-03-01T11:28:56;57.16;53.27;70.62;;
75467;Laerm;64050;50.634;3.062;2023-03-01T11:31:23;57.31;53.43;68.62;;
75467;Laerm;64050;50.634;3.062;2023-03-01T11:34:50;56.68;52.94;65.31;;
75467;Laerm;64050;50.634;3.062;2023-03-01T11:36:48;57.43;52.79;67.94;;
75467;Laerm;64050;50.634;3.062;2023-03-01T11:39:26;57.17;53.52;61.98;;
75467;Laerm;64050;50.634;3.062;2023-03-01T11:41:58;57.53;53.67;64.74;;
75467;Laerm;64050;50.634;3.062;2023-03-01T11:44:26;57.22;53.67;63.33;;
75467;Laerm;64050;50.634;3.062;2023-03-01T11:56:35;57.55;53.79;64.75;;
75467;Laerm;64050;50.634;3.062;2023-03-01T11:59:27;57.30;53.50;69.96;;
75467;Laerm;64050;50.634;3.062;2023-03-01T12:06:59;57.64;53.63;65.07;;
75467;Laerm;64050;50.634;3.062;2023-03-01T12:14:37;57.46;53.13;67.01;;
75467;Laerm;64050;50.634;3.062;2023-03-01T12:22:09;59.12;53.72;71.23;;
75467;Laerm;64050;50.634;3.062;2023-03-01T12:50:52;58.37;53.09;74.72;;
75467;Laerm;64050;50.634;3.062;2023-03-01T12:53:31;57.83;53.56;69.81;;
75467;Laerm;64050;50.634;3.062;2023-03-01T12:56:06;57.53;53.44;74.19;;
75467;Laerm;64050;50.634;3.062;2023-03-01T12:58:36;56.81;53.42;69.54;;
75467;Laerm;64050;50.634;3.062;2023-03-01T13:06:21;57.25;53.88;64.42;;
75467;Laerm;64050;50.634;3.062;2023-03-01T13:11:19;57.57;53.98;70.81;;
75467;Laerm;64050;50.634;3.062;2023-03-01T13:13:46;57.64;53.64;67.89;;
75467;Laerm;64050;50.634;3.062;2023-03-01T13:16:20;57.71;54.06;65.20;;
75467;Laerm;64050;50.634;3.062;2023-03-01T13:18:47;57.10;53.35;70.62;;
75467;Laerm;64050;50.634;3.062;2023-03-01T13:21:12;57.36;53.55;65.85;;
75467;Laerm;64050;50.634;3.062;2023-03-01T13:23:38;57.63;53.45;69.13;;
75467;Laerm;64050;50.634;3.062;2023-03-01T13:26:12;57.28;53.50;66.89;;
75467;Laerm;64050;50.634;3.062;2023-03-01T13:28:39;57.17;49.10;70.27;;
75467;Laerm;64050;50.634;3.062;2023-03-01T13:33:55;52.67;48.06;69.64;;
75467;Laerm;64050;50.634;3.062;2023-03-01T13:37:08;53.70;50.45;64.77;;
75467;Laerm;64050;50.634;3.062;2023-03-01T13:46:49;53.22;50.32;65.78;;
75467;Laerm;64050;50.634;3.062;2023-03-01T13:49:18;53.41;50.34;66.15;;
75467;Laerm;64050;50.634;3.062;2023-03-01T13:51:48;52.79;49.26;57.97;;
75467;Laerm;64050;50.634;3.062;2023-03-01T13:54:14;52.37;49.29;58.81;;
75467;Laerm;64050;50.634;3.062;2023-03-01T13:56:41;53.75;49.58;66.74;;
75467;Laerm;64050;50.634;3.062;2023-03-01T14:02:11;53.02;47.39;71.31;;
75467;Laerm;64050;50.634;3.062;2023-03-01T14:04:37;53.66;49.80;66.32;;
75467;Laerm;64050;50.634;3.062;2023-03-01T14:07:19;53.78;49.58;70.13;;
75467;Laerm;64050;50.634;3.062;2023-03-01T14:09:46;53.31;50.38;60.80;;
75467;Laerm;64050;50.634;3.062;2023-03-01T14:19:57;52.80;48.77;62.27;;
75467;Laerm;64050;50.634;3.062;2023-03-01T14:24:52;53.59;48.95;64.77;;
75467;Laerm;64050;50.634;3.062;2023-03-01T14:27:19;53.28;47.55;62.97;;
75467;Laerm;64050;50.634;3.062;2023-03-01T14:29:53;52.61;48.04;67.32;;
75467;Laerm;64050;50.634;3.062;2023-03-01T14:32:20;52.43;48.30;65.04;;
75467;Laerm;64050;50.634;3.062;2023-03-01T14:34:47;54.26;50.36;63.08;;
75467;Laerm;64050;50.634;3.062;2023-03-01T14:39:49;54.33;50.27;69.62;;
75467;Laerm;64050;50.634;3.062;2023-03-01T14:42:15;54.87;50.32;64.01;;
75467;Laerm;64050;50.634;3.062;2023-03-01T14:44:42;53.94;49.74;65.70;;
75467;Laerm;64050;50.634;3.062;2023-03-01T14:47:14;53.06;48.79;60.03;;
75467;Laerm;64050;50.634;3.062;2023-03-01T14:49:40;52.91;49.28;62.67;;
75467;Laerm;64050;50.634;3.062;2023-03-01T14:52:07;52.35;48.81;61.90;;
75467;Laerm;64050;50.634;3.062;2023-03-01T14:56:58;53.58;48.96;65.25;;
75467;Laerm;64050;50.634;3.062;2023-03-01T14:59:24;52.50;49.10;59.79;;
75467;Laerm;64050;50.634;3.062;2023-03-01T15:01:50;52.59;49.23;61.93;;
75467;Laerm;64050;50.634;3.062;2023-03-01T15:04:16;53.51;49.25;61.19;;
75467;Laerm;64050;50.634;3.062;2023-03-01T15:06:41;53.99;50.01;62.51;;
75467;Laerm;64050;50.634;3.062;2023-03-01T15:09:07;53.90;49.94;63.28;;
75467;Laerm;64050;50.634;3.062;2023-03-01T15:11:37;54.92;49.68;72.76;;
75467;Laerm;64050;50.634;3.062;2023-03-01T15:14:24;56.05;50.66;73.51;;
75467;Laerm;64050;50.634;3.062;2023-03-01T15:16:50;53.94;48.40;67.77;;
75467;Laerm;64050;50.634;3.062;2023-03-01T15:19:15;52.86;48.68;63.29;;
75467;Laerm;64050;50.634;3.062;2023-03-01T15:21:43;53.44;49.07;62.71;;
75467;Laerm;64050;50.634;3.062;2023-03-01T15:26:44;55.15;49.17;67.86;;
75467;Laerm;64050;50.634;3.062;2023-03-01T15:29:15;55.23;48.41;73.85;;
75467;Laerm;64050;50.634;3.062;2023-03-01T15:31:41;54.12;49.48;63.64;;
75467;Laerm;64050;50.634;3.062;2023-03-01T15:34:11;56.03;49.97;80.64;;
75467;Laerm;64050;50.634;3.062;2023-03-01T15:36:46;54.49;48.55;67.01;;
75467;Laerm;64050;50.634;3.062;2023-03-01T15:41:52;58.62;50.79;77.66;;
75467;Laerm;64050;50.634;3.062;2023-03-01T15:44:24;58.60;50.91;77.37;;
75467;Laerm;64050;50.634;3.062;2023-03-01T15:46:50;57.33;51.11;69.32;;
75467;Laerm;64050;50.634;3.062;2023-03-01T15:49:24;60.44;51.16;81.72;;
75467;Laerm;64050;50.634;3.062;2023-03-01T15:51:51;60.29;50.70;87.57;;
75467;Laerm;64050;50.634;3.062;2023-03-01T15:54:18;56.46;49.39;74.64;;
75467;Laerm;64050;50.634;3.062;2023-03-01T15:56:45;55.86;49.29;71.50;;